Time;durP1;ratioP1;P1;durP2;ratioP2;P2;SDS_P1;SDS_P2;PMS_P1;PMS_P2;Temp;Humidity;BMP_temperature;BMP_pressure;BME280_temperature;BME280_humidity;BME280_pressure;Samples;Min_cycle;Max_cycle;Signal;HPM_P1;HPM_P2
2023/10/12 00:02:27;;;;;;;;;;;;;;;;;;4990473;28;99699;-63
2023/10/12 00:05:00;;;;;;;26.92;15.27;;;;;;;;;;4991359;28;120937;-66
2023/10/12 00:07:42;;;;;;;36.50;14.98;;;;;;;;;;4990356;28;100207;-65
2023/10/12 00:12:36;;;;;;;28.70;14.93;;;;;;;;;;4990858;28;98134;-64
2023/10/12 00:15:05;;;;;;;33.88;16.08;;;;;;;;;;4989802;28;98689;-63
2023/10/12 00:17:33;;;;;;;34.27;16.03;;;;;;;;;;4989582;28;99471;-64
2023/10/12 00:19:59;;;;;;;36.85;15.93;;;;;;;;;;4993114;28;99626;-65
2023/10/12 00:22:26;;;;;;;34.80;15.35;;;;;;;;;;4989522;28;99259;-65
2023/10/12 00:24:52;;;;;;;35.78;16.45;;;;;;;;;;4989885;28;99002;-64
2023/10/12 00:27:20;;;;;;;40.63;17.83;;;;;;;;;;4989009;28;99557;-64
2023/10/12 00:29:49;;;;;;;41.00;17.52;;;;;;;;;;4989362;28;99496;-64
2023/10/12 00:32:15;;;;;;;42.25;17.00;;;;;;;;;;4990031;28;98761;-64
2023/10/12 00:34:46;;;;;;;33.72;16.52;;;;;;;;;;4990083;28;99271;-65
2023/10/12 00:37:13;;;;;;;39.17;17.38;;;;;;;;;;4986599;28;98750;-62
2023/10/12 00:40:39;;;;;;;51.60;18.27;;;;;;;;;;4989946;28;98605;-62
2023/10/12 00:42:36;;;;;;;48.88;18.45;;;;;;;;;;4985537;28;99275;-63
2023/10/12 00:45:09;;;;;;;39.42;18.85;;;;;;;;;;4989109;28;99615;-62
2023/10/12 00:47:48;;;;;;;38.97;17.75;;;;;;;;;;4989718;28;100107;-63
2023/10/12 00:50:16;;;;;;;38.22;18.27;;;;;;;;;;4989233;28;99382;-62
2023/10/12 00:52:53;;;;;;;39.97;18.67;;;;;;;;;;4985874;28;98580;-62
2023/10/12 00:55:21;;;;;;;34.38;17.52;;;;;;;;;;4984925;28;99393;-63
2023/10/12 00:57:50;;;;;;;39.55;18.80;;;;;;;;;;4989143;28;99854;-65
2023/10/12 01:00:17;;;;;;;44.58;19.50;;;;;;;;;;4990202;28;98483;-65
2023/10/12 01:03:06;;;;;;;39.63;18.65;;;;;;;;;;4989809;28;99291;-64
2023/10/12 01:05:35;;;;;;;41.75;18.95;;;;;;;;;;4990095;28;100460;-64
2023/10/12 01:08:02;;;;;;;47.28;19.90;;;;;;;;;;4989727;28;99226;-64
2023/10/12 01:10:31;;;;;;;40.90;19.63;;;;;;;;;;4988278;28;100223;-64
2023/10/12 01:13:00;;;;;;;51.97;20.73;;;;;;;;;;4988114;28;98550;-63
2023/10/12 01:15:30;;;;;;;43.20;20.20;;;;;;;;;;4988032;28;99740;-63
2023/10/12 01:17:56;;;;;;;44.72;20.40;;;;;;;;;;4988391;28;101648;-64
2023/10/12 01:20:39;;;;;;;43.63;18.70;;;;;;;;;;4989019;28;98636;-65
2023/10/12 01:23:05;;;;;;;43.97;18.60;;;;;;;;;;4988709;28;99195;-65
2023/10/12 01:25:40;;;;;;;42.08;18.45;;;;;;;;;;4989026;28;99484;-65
2023/10/12 01:28:12;;;;;;;41.05;17.92;;;;;;;;;;4991919;28;97990;-65
2023/10/12 01:30:39;;;;;;;40.05;16.65;;;;;;;;;;4988718;28;99808;-65
2023/10/12 01:33:06;;;;;;;29.08;12.30;;;;;;;;;;4988409;28;98518;-65
2023/10/12 01:35:33;;;;;;;35.65;11.65;;;;;;;;;;4988843;28;99710;-65
2023/10/12 01:38:08;;;;;;;34.78;10.23;;;;;;;;;;4988482;28;100419;-65
2023/10/12 01:40:54;;;;;;;32.42;8.55;;;;;;;;;;4988606;28;98787;-65
2023/10/12 01:43:21;;;;;;;28.42;9.50;;;;;;;;;;4984655;28;99143;-66
2023/10/12 01:46:07;;;;;;;24.33;8.98;;;;;;;;;;4986840;28;99484;-65
2023/10/12 01:48:33;;;;;;;35.95;11.00;;;;;;;;;;4990628;28;98748;-65
2023/10/12 01:51:14;;;;;;;29.65;9.75;;;;;;;;;;4986684;28;99418;-66
2023/10/12 01:53:41;;;;;;;;;;;;;;;;;;4988543;28;97957;-65
2023/10/12 01:56:09;;;;;;;35.13;10.88;;;;;;;;;;4988500;28;128350;-65
2023/10/12 01:58:37;;;;;;;31.52;11.07;;;;;;;;;;4986847;28;100378;-65
2023/10/12 02:01:07;;;;;;;25.70;10.50;;;;;;;;;;4987315;28;99565;-65
2023/10/12 02:03:38;;;;;;;29.20;9.50;;;;;;;;;;4987128;28;100965;-65
2023/10/12 02:06:13;;;;;;;;;;;;;;;;;;4987885;28;100198;-65
2023/10/12 02:08:45;;;;;;;26.60;8.15;;;;;;;;;;4988673;28;118635;-65
2023/10/12 02:13:47;;;;;;;26.33;8.20;;;;;;;;;;4987544;28;98643;-65
2023/10/12 02:16:23;;;;;;;25.60;7.65;;;;;;;;;;4987282;28;99187;-66
2023/10/12 02:18:50;;;;;;;29.40;8.63;;;;;;;;;;4984635;28;98885;-65
2023/10/12 02:21:21;;;;;;;25.63;8.15;;;;;;;;;;4983965;28;98434;-66
2023/10/12 02:23:54;;;;;;;33.13;8.23;;;;;;;;;;4984257;28;99267;-66
2023/10/12 02:26:36;;;;;;;29.33;8.05;;;;;;;;;;4983794;28;100319;-66
2023/10/12 02:31:38;;;;;;;26.35;8.38;;;;;;;;;;4986872;28;99521;-65
2023/10/12 02:34:05;;;;;;;22.40;7.38;;;;;;;;;;4990745;28;99585;-65
2023/10/12 02:36:32;;;;;;;20.27;6.43;;;;;;;;;;4987235;28;99447;-65
2023/10/12 02:39:01;;;;;;;15.25;4.68;;;;;;;;;;4986149;28;99466;-65
2023/10/12 02:41:27;;;;;;;15.87;5.17;;;;;;;;;;4947517;28;1134606;-66
2023/10/12 02:44:11;;;;;;;11.07;4.03;;;;;;;;;;4988479;28;99264;-65
2023/10/12 02:46:41;;;;;;;7.85;3.28;;;;;;;;;;4988630;28;100417;-66
2023/10/12 02:49:07;;;;;;;15.48;3.97;;;;;;;;;;4988448;28;98655;-65
2023/10/12 02:51:37;;;;;;;12.98;4.00;;;;;;;;;;4988122;28;100170;-65
2023/10/12 02:54:04;;;;;;;12.15;3.10;;;;;;;;;;4987718;28;99611;-66
2023/10/12 02:56:31;;;;;;;5.32;2.80;;;;;;;;;;4991059;28;98612;-65
2023/10/12 02:59:04;;;;;;;6.00;2.53;;;;;;;;;;4987889;28;98495;-65
2023/10/12 03:01:31;;;;;;;7.45;2.50;;;;;;;;;;4988351;28;98694;-65
2023/10/12 03:03:58;;;;;;;6.95;2.35;;;;;;;;;;4988475;28;98429;-65
2023/10/12 03:06:24;;;;;;;3.25;1.90;;;;;;;;;;4987341;28;99489;-65
2023/10/12 03:09:04;;;;;;;7.47;2.53;;;;;;;;;;4988621;28;98031;-65
2023/10/12 03:11:31;;;;;;;5.22;2.30;;;;;;;;;;4986004;28;98773;-65
2023/10/12 03:14:14;;;;;;;6.95;2.13;;;;;;;;;;4987636;28;99666;-65
2023/10/12 03:16:45;;;;;;;10.48;2.42;;;;;;;;;;4988050;28;99494;-65
2023/10/12 03:19:18;;;;;;;6.00;2.10;;;;;;;;;;4992199;28;99902;-66
2023/10/12 03:21:47;;;;;;;2.30;1.80;;;;;;;;;;4988068;28;98847;-65
2023/10/12 03:24:14;;;;;;;3.33;2.03;;;;;;;;;;4988198;28;99158;-65
2023/10/12 03:26:40;;;;;;;4.70;2.20;;;;;;;;;;4987532;28;99455;-65
2023/10/12 03:29:18;;;;;;;2.15;1.80;;;;;;;;;;4987983;28;101304;-63
2023/10/12 03:35:14;;;;;;;2.85;1.33;;;;;;;;;;4987528;28;99023;-63
2023/10/12 03:37:14;;;;;;;5.15;1.30;;;;;;;;;;4987519;28;99112;-64
2023/10/12 03:39:59;;;;;;;2.60;1.40;;;;;;;;;;4991206;28;99075;-63
2023/10/12 03:44:55;;;;;;;3.78;1.50;;;;;;;;;;4991575;28;99947;-64
2023/10/12 03:52:19;;;;;;;1.98;1.30;;;;;;;;;;4991248;28;101463;-64
2023/10/12 03:57:38;;;;;;;1.90;1.60;;;;;;;;;;4988258;28;98840;-64
2023/10/12 04:02:45;;;;;;;3.80;1.60;;;;;;;;;;4994292;28;99465;-63
2023/10/12 04:16:09;;;;;;;2.33;1.80;;;;;;;;;;4987201;28;99448;-64
2023/10/12 04:19:03;;;;;;;5.03;1.88;;;;;;;;;;4990651;28;98513;-64
2023/10/12 04:21:56;;;;;;;3.28;2.10;;;;;;;;;;4987735;28;100364;-63
2023/10/12 04:24:29;;;;;;;2.75;1.83;;;;;;;;;;4986657;28;99299;-63
2023/10/12 04:29:41;;;;;;;11.40;1.98;;;;;;;;;;4990582;28;99492;-63
2023/10/12 04:32:11;;;;;;;3.15;2.20;;;;;;;;;;4990640;28;98491;-64
2023/10/12 04:34:49;;;;;;;2.20;2.00;;;;;;;;;;4990463;28;99968;-64
2023/10/12 04:37:25;;;;;;;5.10;2.13;;;;;;;;;;4990811;28;99139;-64
2023/10/12 04:40:08;;;;;;;4.38;3.15;;;;;;;;;;4987174;28;98460;-66
2023/10/12 04:42:35;;;;;;;10.52;2.15;;;;;;;;;;4987612;28;100614;-66
2023/10/12 04:47:46;;;;;;;2.85;1.98;;;;;;;;;;4991292;28;98622;-65
2023/10/12 04:50:27;;;;;;;3.08;1.90;;;;;;;;;;4993028;28;100789;-66
2023/10/12 04:53:09;;;;;;;2.47;2.28;;;;;;;;;;4986478;28;97773;-65
2023/10/12 04:55:35;;;;;;;6.88;2.35;;;;;;;;;;4989503;28;98557;-66
2023/10/12 04:58:31;;;;;;;3.08;1.67;;;;;;;;;;4989775;28;99506;-66
2023/10/12 05:01:14;;;;;;;4.40;1.98;;;;;;;;;;4986508;28;99263;-66
2023/10/12 05:03:41;;;;;;;3.72;2.20;;;;;;;;;;4989373;28;100036;-65
2023/10/12 05:06:09;;;;;;;2.60;1.80;;;;;;;;;;4989633;28;99484;-66
2023/10/12 05:08:36;;;;;;;5.18;2.03;;;;;;;;;;4989419;28;98630;-66
2023/10/12 05:11:06;;;;;;;3.22;2.08;;;;;;;;;;4990349;28;98983;-66
2023/10/12 05:13:33;;;;;;;4.60;2.10;;;;;;;;;;4993159;28;100760;-65
2023/10/12 05:16:06;;;;;;;5.40;2.28;;;;;;;;;;4988579;28;99410;-66
2023/10/12 05:18:33;;;;;;;2.60;2.40;;;;;;;;;;4987694;28;99760;-65
2023/10/12 05:21:00;;;;;;;2.50;2.30;;;;;;;;;;4989460;28;99014;-65
2023/10/12 05:23:27;;;;;;;2.80;2.17;;;;;;;;;;4989707;28;100168;-65
2023/10/12 05:28:27;;;;;;;5.03;1.90;;;;;;;;;;4986368;28;99245;-65
2023/10/12 05:36:04;;;;;;;5.85;1.42;;;;;;;;;;4992957;28;98607;-65
2023/10/12 05:38:37;;;;;;;1.27;1.23;;;;;;;;;;4989126;28;100532;-65
2023/10/12 05:41:13;;;;;;;3.53;1.40;;;;;;;;;;4989655;28;98622;-65
2023/10/12 05:43:40;;;;;;;1.23;1.13;;;;;;;;;;4989706;28;101713;-65
2023/10/12 05:46:13;;;;;;;1.25;0.98;;;;;;;;;;4988982;28;99571;-65
2023/10/12 05:48:42;;;;;;;5.53;1.13;;;;;;;;;;4989107;28;98558;-65
2023/10/12 05:51:10;;;;;;;0.60;0.60;;;;;;;;;;4989547;28;100449;-65
2023/10/12 05:53:37;;;;;;;1.65;0.93;;;;;;;;;;4989080;28;99398;-65
2023/10/12 05:56:05;;;;;;;1.55;0.93;;;;;;;;;;4992598;28;98738;-65
2023/10/12 05:58:33;;;;;;;0.60;0.60;;;;;;;;;;4988451;28;99285;-65
2023/10/12 06:01:08;;;;;;;0.60;0.60;;;;;;;;;;4988936;28;98747;-65
2023/10/12 06:03:39;;;;;;;0.50;0.50;;;;;;;;;;4988831;28;99182;-65
2023/10/12 06:06:09;;;;;;;0.60;0.60;;;;;;;;;;4987947;28;98578;-65
2023/10/12 06:08:37;;;;;;;1.15;0.40;;;;;;;;;;4990141;28;97902;-65
2023/10/12 06:11:04;;;;;;;2.75;0.60;;;;;;;;;;4988869;28;99460;-65
2023/10/12 06:13:39;;;;;;;0.50;0.50;;;;;;;;;;4988400;28;99465;-65
2023/10/12 06:16:14;;;;;;;1.48;0.70;;;;;;;;;;4988512;28;99455;-65
2023/10/12 06:18:44;;;;;;;0.50;0.50;;;;;;;;;;4988844;28;100946;-65
2023/10/12 06:21:17;;;;;;;1.05;0.60;;;;;;;;;;4989220;28;98966;-65
2023/10/12 06:23:50;;;;;;;3.13;0.90;;;;;;;;;;4988702;28;100112;-65
2023/10/12 06:26:28;;;;;;;1.95;0.90;;;;;;;;;;4988929;28;100174;-65
2023/10/12 06:28:56;;;;;;;0.80;0.80;;;;;;;;;;4985615;28;98498;-65
2023/10/12 06:31:22;;;;;;;6.38;1.17;;;;;;;;;;4989013;28;100145;-65
2023/10/12 06:33:49;;;;;;;9.10;0.90;;;;;;;;;;4988509;28;98728;-65
2023/10/12 06:36:22;;;;;;;2.75;0.90;;;;;;;;;;4988861;28;98505;-65
2023/10/12 06:44:13;;;;;;;1.40;0.88;;;;;;;;;;4988442;28;100156;-65
2023/10/12 06:46:45;;;;;;;2.70;1.00;;;;;;;;;;4988308;28;98748;-65
2023/10/12 06:49:28;;;;;;;0.85;0.80;;;;;;;;;;4988824;28;98549;-65
2023/10/12 06:52:01;;;;;;;2.08;0.93;;;;;;;;;;4988125;28;99134;-65
2023/10/12 07:02:29;;;;;;;1.67;0.90;;;;;;;;;;4988408;28;99555;-64
2023/10/12 07:04:57;;;;;;;2.30;1.20;;;;;;;;;;4992275;28;99730;-63
2023/10/12 07:07:28;;;;;;;2.35;1.10;;;;;;;;;;4987389;28;101367;-63
2023/10/12 07:10:00;;;;;;;2.10;1.10;;;;;;;;;;4988133;28;99107;-63
2023/10/12 07:12:26;;;;;;;2.20;1.30;;;;;;;;;;4989012;28;101197;-63
2023/10/12 07:14:53;;;;;;;2.22;0.98;;;;;;;;;;4987586;28;100517;-63
2023/10/12 07:17:31;;;;;;;3.13;1.35;;;;;;;;;;4989918;28;98776;-64
2023/10/12 07:19:58;;;;;;;4.53;1.38;;;;;;;;;;4988271;28;100307;-63
2023/10/12 07:22:35;;;;;;;1.38;0.93;;;;;;;;;;4987930;28;100618;-63
2023/10/12 07:25:02;;;;;;;3.35;1.35;;;;;;;;;;4988174;28;98608;-63
2023/10/12 07:27:29;;;;;;;4.45;1.50;;;;;;;;;;4990703;28;98713;-63
2023/10/12 07:30:10;;;;;;;2.15;1.45;;;;;;;;;;4991164;28;99061;-63
2023/10/12 07:32:44;;;;;;;1.77;1.30;;;;;;;;;;4987925;28;99715;-63
2023/10/12 07:35:31;;;;;;;5.88;1.70;;;;;;;;;;4990484;28;99371;-63
2023/10/12 07:37:58;;;;;;;4.45;1.58;;;;;;;;;;4988289;28;98894;-63
2023/10/12 07:40:24;;;;;;;2.35;1.88;;;;;;;;;;4991914;28;99131;-63
2023/10/12 07:42:51;;;;;;;2.65;1.67;;;;;;;;;;4990423;28;100461;-64
2023/10/12 07:45:18;;;;;;;3.50;2.08;;;;;;;;;;4990725;28;98459;-63
2023/10/12 07:47:58;;;;;;;7.43;1.85;;;;;;;;;;4991641;28;100152;-63
2023/10/12 07:50:26;;;;;;;3.35;1.83;;;;;;;;;;4994432;28;98890;-63
2023/10/12 07:53:06;;;;;;;1.85;1.50;;;;;;;;;;4990817;28;99910;-63
2023/10/12 07:55:41;;;;;;;16.38;1.98;;;;;;;;;;4987277;28;99572;-63
2023/10/12 07:58:12;;;;;;;5.43;1.70;;;;;;;;;;4990095;28;99560;-63
2023/10/12 08:00:41;;;;;;;3.05;1.50;;;;;;;;;;4995144;28;100014;-63
2023/10/12 08:05:43;;;;;;;3.35;1.45;;;;;;;;;;4988519;28;98708;-63
2023/10/12 08:08:17;;;;;;;6.88;1.98;;;;;;;;;;4991058;28;99188;-63
2023/10/12 08:13:14;;;;;;;2.17;1.30;;;;;;;;;;4991063;28;99220;-63
2023/10/12 08:16:25;;;;;;;4.40;1.10;;;;;;;;;;4990791;28;98740;-63
2023/10/12 08:24:09;;;;;;;2.60;1.13;;;;;;;;;;4989302;28;100354;-63
2023/10/12 08:31:55;;;;;;;3.28;1.40;;;;;;;;;;4990007;28;99563;-63
2023/10/12 08:39:39;;;;;;;5.50;1.17;;;;;;;;;;4985512;28;98549;-63
2023/10/12 08:45:07;;;;;;;3.90;1.30;;;;;;;;;;4990342;28;99624;-63
2023/10/12 08:52:28;;;;;;;1.60;1.48;;;;;;;;;;4990018;28;100514;-63
2023/10/12 08:54:57;;;;;;;2.42;1.67;;;;;;;;;;4989659;28;98827;-63
2023/10/12 08:57:42;;;;;;;2.75;1.48;;;;;;;;;;4992684;28;99152;-63
2023/10/12 09:05:51;;;;;;;1.30;1.20;;;;;;;;;;4986917;28;99472;-63
2023/10/12 09:11:13;;;;;;;1.63;1.20;;;;;;;;;;4989378;28;98931;-63
2023/10/12 09:13:46;;;;;;;5.53;1.83;;;;;;;;;;4987298;28;99401;-63
2023/10/12 09:16:14;;;;;;;3.25;1.40;;;;;;;;;;4989712;28;100279;-63
2023/10/12 09:18:45;;;;;;;2.33;1.60;;;;;;;;;;4989270;28;99838;-63
2023/10/12 09:23:50;;;;;;;2.00;1.90;;;;;;;;;;4990166;28;99280;-65
2023/10/12 09:26:30;;;;;;;2.38;1.55;;;;;;;;;;4988281;28;99570;-65
2023/10/12 09:36:43;;;;;;;1.88;1.77;;;;;;;;;;4985701;28;98543;-65
2023/10/12 09:39:14;;;;;;;1.50;1.40;;;;;;;;;;4985721;28;98732;-65
2023/10/12 09:41:41;;;;;;;4.95;1.73;;;;;;;;;;4986472;28;101035;-65
2023/10/12 09:44:11;;;;;;;7.78;1.63;;;;;;;;;;4992161;28;102430;-65
2023/10/12 09:46:48;;;;;;;9.60;1.55;;;;;;;;;;4985900;28;99509;-65
2023/10/12 09:49:25;;;;;;;1.70;1.60;;;;;;;;;;4989131;28;99905;-65
2023/10/12 09:51:54;;;;;;;2.95;1.52;;;;;;;;;;4989353;28;100306;-65
2023/10/12 09:54:27;;;;;;;1.57;1.47;;;;;;;;;;4988983;28;100672;-65
2023/10/12 09:57:03;;;;;;;2.25;1.60;;;;;;;;;;4989203;28;98601;-65
2023/10/12 09:59:31;;;;;;;2.08;1.50;;;;;;;;;;4990302;28;100185;-65
2023/10/12 10:02:27;;;;;;;1.40;1.30;;;;;;;;;;4988163;28;99444;-65
2023/10/12 10:05:04;;;;;;;1.40;1.30;;;;;;;;;;4988580;28;98431;-65
2023/10/12 10:07:36;;;;;;;1.25;1.20;;;;;;;;;;4991910;28;99472;-65
2023/10/12 10:10:05;;;;;;;1.38;1.20;;;;;;;;;;4989052;28;98740;-65
2023/10/12 10:12:42;;;;;;;1.55;1.20;;;;;;;;;;4985195;28;99311;-65
2023/10/12 10:15:20;;;;;;;1.30;1.20;;;;;;;;;;4984389;28;99660;-65
2023/10/12 10:17:52;;;;;;;1.85;1.25;;;;;;;;;;4986527;28;98675;-65
2023/10/12 10:23:02;;;;;;;1.55;1.10;;;;;;;;;;4987799;28;100817;-65
2023/10/12 10:25:34;;;;;;;1.75;1.48;;;;;;;;;;4988923;28;98219;-65
2023/10/12 10:28:08;;;;;;;3.47;1.50;;;;;;;;;;4992103;28;99857;-65
2023/10/12 10:30:40;;;;;;;1.50;1.40;;;;;;;;;;4988037;28;98635;-65
2023/10/12 10:33:17;;;;;;;1.67;1.50;;;;;;;;;;4984407;28;99524;-65
2023/10/12 10:36:23;;;;;;;1.85;1.73;;;;;;;;;;4985312;28;100509;-65
2023/10/12 10:41:18;;;;;;;2.47;2.22;;;;;;;;;;4988705;28;99236;-65
2023/10/12 10:43:46;;;;;;;3.55;2.58;;;;;;;;;;4987142;28;99837;-65
2023/10/12 10:46:16;;;;;;;2.38;2.15;;;;;;;;;;4988591;28;98649;-65
2023/10/12 10:48:49;;;;;;;2.78;2.35;;;;;;;;;;4988354;28;100300;-65
2023/10/12 10:51:40;;;;;;;4.05;2.95;;;;;;;;;;4989285;28;101939;-65
2023/10/12 10:54:12;;;;;;;3.30;3.00;;;;;;;;;;4988718;28;99196;-65
2023/10/12 10:56:47;;;;;;;3.88;3.38;;;;;;;;;;4991506;28;99881;-65
2023/10/12 10:59:17;;;;;;;10.38;3.47;;;;;;;;;;4990981;28;99257;-65
2023/10/12 11:01:51;;;;;;;4.13;3.55;;;;;;;;;;4991968;28;101000;-65
2023/10/12 11:04:31;;;;;;;3.83;3.45;;;;;;;;;;4991152;28;99539;-66
2023/10/12 11:07:02;;;;;;;8.18;3.58;;;;;;;;;;4992442;28;98512;-65
2023/10/12 11:09:54;;;;;;;4.90;4.22;;;;;;;;;;4991648;28;100194;-65
2023/10/12 11:12:25;;;;;;;8.02;3.90;;;;;;;;;;4988893;28;99639;-65
2023/10/12 11:15:00;;;;;;;4.35;3.58;;;;;;;;;;4995169;28;98722;-65
2023/10/12 11:17:30;;;;;;;3.95;3.58;;;;;;;;;;4991580;28;99712;-65
2023/10/12 11:19:57;;;;;;;4.13;3.80;;;;;;;;;;4990910;28;98787;-65
2023/10/12 11:22:24;;;;;;;5.40;3.80;;;;;;;;;;4991256;28;99556;-65
2023/10/12 11:24:50;;;;;;;7.05;4.43;;;;;;;;;;4990456;28;100726;-65
2023/10/12 11:27:31;;;;;;;5.93;4.05;;;;;;;;;;4990765;28;98624;-65
2023/10/12 11:30:00;;;;;;;8.90;4.70;;;;;;;;;;4991308;28;99519;-65
2023/10/12 11:32:28;;;;;;;4.77;4.10;;;;;;;;;;4990345;28;99476;-66
2023/10/12 11:34:59;;;;;;;5.65;4.85;;;;;;;;;;4991339;28;98556;-65
2023/10/12 11:37:28;;;;;;;7.20;5.13;;;;;;;;;;4992675;28;99114;-65
2023/10/12 11:39:54;;;;;;;5.63;5.05;;;;;;;;;;4991916;28;98556;-65
2023/10/12 11:42:21;;;;;;;6.38;5.55;;;;;;;;;;4991406;28;100248;-63
2023/10/12 11:44:48;;;;;;;6.47;5.15;;;;;;;;;;4990263;28;100503;-64
2023/10/12 11:47:17;;;;;;;6.68;5.85;;;;;;;;;;4991825;28;98567;-64
2023/10/12 11:49:55;;;;;;;10.05;6.13;;;;;;;;;;4990953;28;101967;-63
2023/10/12 11:52:34;;;;;;;7.78;6.90;;;;;;;;;;4988434;28;99704;-63
2023/10/12 11:55:07;;;;;;;7.28;6.32;;;;;;;;;;4991130;28;98558;-63
2023/10/12 11:57:35;;;;;;;8.20;6.80;;;;;;;;;;4991398;28;99110;-63
2023/10/12 12:02:56;;;;;;;14.23;6.72;;;;;;;;;;4987521;28;100257;-63
2023/10/12 12:05:25;;;;;;;9.20;7.35;;;;;;;;;;4989953;28;99437;-63
2023/10/12 12:07:52;;;;;;;11.02;7.28;;;;;;;;;;4991930;28;97902;-63
2023/10/12 12:10:27;;;;;;;17.77;7.90;;;;;;;;;;4990632;28;98672;-63
2023/10/12 12:12:53;;;;;;;12.70;7.30;;;;;;;;;;4989834;28;99693;-63
2023/10/12 12:15:24;;;;;;;9.85;7.95;;;;;;;;;;4989282;28;99591;-63
2023/10/12 12:17:51;;;;;;;10.40;7.20;;;;;;;;;;4991049;28;99839;-63
2023/10/12 12:20:21;;;;;;;10.77;7.65;;;;;;;;;;4989668;28;99478;-64
2023/10/12 12:22:48;;;;;;;10.77;7.57;;;;;;;;;;4994066;28;98617;-63
2023/10/12 12:25:32;;;;;;;10.75;7.95;;;;;;;;;;4990306;28;99545;-63
2023/10/12 12:28:01;;;;;;;14.98;8.60;;;;;;;;;;4988556;28;98764;-63
2023/10/12 12:30:46;;;;;;;13.60;8.03;;;;;;;;;;4990451;28;99368;-63
2023/10/12 12:33:24;;;;;;;10.60;7.97;;;;;;;;;;4988157;28;98770;-63
2023/10/12 12:36:00;;;;;;;15.68;8.35;;;;;;;;;;4990726;28;98608;-63
2023/10/12 12:40:54;;;;;;;10.20;8.70;;;;;;;;;;4989356;28;100231;-64
2023/10/12 12:43:21;;;;;;;17.02;9.82;;;;;;;;;;4993344;28;98657;-64
2023/10/12 12:45:47;;;;;;;12.15;8.30;;;;;;;;;;4990032;28;100576;-63
2023/10/12 12:48:14;;;;;;;11.57;8.55;;;;;;;;;;4990424;28;98380;-64
2023/10/12 12:50:43;;;;;;;11.52;9.18;;;;;;;;;;4989596;28;99213;-63
2023/10/12 12:53:11;;;;;;;13.98;9.30;;;;;;;;;;4989964;28;100620;-65
2023/10/12 12:55:40;;;;;;;11.90;9.30;;;;;;;;;;4990273;28;98725;-65
2023/10/12 12:58:09;;;;;;;16.15;10.00;;;;;;;;;;4991320;28;100261;-65
2023/10/12 13:00:36;;;;;;;16.23;10.45;;;;;;;;;;4988355;28;100157;-65
2023/10/12 13:03:02;;;;;;;21.17;10.80;;;;;;;;;;4989383;28;98502;-65
2023/10/12 13:05:29;;;;;;;18.52;11.95;;;;;;;;;;4991867;28;100265;-65
2023/10/12 13:07:56;;;;;;;23.77;12.90;;;;;;;;;;4988953;28;98675;-66
2023/10/12 13:10:25;;;;;;;17.08;12.02;;;;;;;;;;4989589;28;100339;-65
2023/10/12 13:12:52;;;;;;;19.33;12.93;;;;;;;;;;4987313;28;101177;-65
2023/10/12 13:15:19;;;;;;;24.10;12.30;;;;;;;;;;4970621;28;98554;-65
2023/10/12 13:17:47;;;;;;;25.25;13.75;;;;;;;;;;4989871;28;98891;-65
2023/10/12 13:20:28;;;;;;;19.92;14.02;;;;;;;;;;4985091;28;100464;-65
2023/10/12 13:22:55;;;;;;;25.00;14.15;;;;;;;;;;4986769;28;97878;-65
2023/10/12 13:25:22;;;;;;;24.55;13.05;;;;;;;;;;4988117;28;98634;-65
2023/10/12 13:27:49;;;;;;;27.50;15.60;;;;;;;;;;4992518;28;100630;-65
2023/10/12 13:30:16;;;;;;;26.88;14.45;;;;;;;;;;4988232;28;99637;-65
2023/10/12 13:32:42;;;;;;;27.25;15.13;;;;;;;;;;4988126;28;99597;-65
2023/10/12 13:35:18;;;;;;;51.80;16.35;;;;;;;;;;4989037;28;99039;-65
2023/10/12 13:37:45;;;;;;;27.10;14.68;;;;;;;;;;4985431;28;100185;-64
2023/10/12 13:40:15;;;;;;;28.45;16.25;;;;;;;;;;4987286;28;100687;-64
2023/10/12 13:42:42;;;;;;;22.05;14.05;;;;;;;;;;4988384;28;98601;-64
2023/10/12 13:45:12;;;;;;;26.67;16.27;;;;;;;;;;4987997;28;99321;-64
2023/10/12 13:47:40;;;;;;;32.65;16.70;;;;;;;;;;4989418;28;97802;-64
2023/10/12 13:50:10;;;;;;;31.73;16.40;;;;;;;;;;4991276;28;98615;-64
2023/10/12 13:52:40;;;;;;;24.30;15.60;;;;;;;;;;4988055;28;99794;-64
2023/10/12 13:55:16;;;;;;;37.88;17.58;;;;;;;;;;4987745;28;99686;-64
2023/10/12 13:57:50;;;;;;;25.83;15.18;;;;;;;;;;4988254;28;99889;-64
2023/10/12 14:00:25;;;;;;;30.45;16.30;;;;;;;;;;4984043;28;99667;-64
2023/10/12 14:02:54;;;;;;;23.20;13.00;;;;;;;;;;4985199;28;98529;-64
2023/10/12 14:05:27;;;;;;;22.13;13.55;;;;;;;;;;4988407;28;99153;-64
2023/10/12 14:08:00;;;;;;;17.58;12.00;;;;;;;;;;4988054;28;99539;-64
2023/10/12 14:10:27;;;;;;;13.82;10.30;;;;;;;;;;4988112;28;98630;-64
2023/10/12 14:12:53;;;;;;;15.68;10.30;;;;;;;;;;4991434;28;99215;-64
2023/10/12 14:15:29;;;;;;;18.58;10.55;;;;;;;;;;4988383;28;98525;-65
2023/10/12 14:17:55;;;;;;;15.35;10.30;;;;;;;;;;4989521;28;99692;-65
2023/10/12 14:20:26;;;;;;;21.45;10.35;;;;;;;;;;4987091;28;100234;-65
2023/10/12 14:22:57;;;;;;;14.75;10.00;;;;;;;;;;4988454;28;98545;-66
2023/10/12 14:25:28;;;;;;;16.90;11.65;;;;;;;;;;4987559;28;100230;-67
2023/10/12 14:27:55;;;;;;;16.10;9.77;;;;;;;;;;4987310;28;99641;-64
2023/10/12 14:30:30;;;;;;;16.42;9.90;;;;;;;;;;4988542;28;99023;-65
2023/10/12 14:32:57;;;;;;;13.35;9.15;;;;;;;;;;4992015;28;99670;-65
2023/10/12 14:35:28;;;;;;;13.88;9.27;;;;;;;;;;4988196;28;98489;-65
2023/10/12 14:37:57;;;;;;;17.00;9.25;;;;;;;;;;4989537;28;99189;-65
2023/10/12 14:40:33;;;;;;;17.98;9.05;;;;;;;;;;4987905;28;99578;-65
2023/10/12 14:43:10;;;;;;;12.77;8.77;;;;;;;;;;4983962;28;98639;-65
2023/10/12 14:45:48;;;;;;;19.73;11.50;;;;;;;;;;4988299;28;99481;-65
2023/10/12 14:48:16;;;;;;;14.57;9.23;;;;;;;;;;4987409;28;99672;-65
2023/10/12 14:50:45;;;;;;;16.08;9.55;;;;;;;;;;4988596;28;98771;-65
2023/10/12 14:53:15;;;;;;;18.75;9.63;;;;;;;;;;4988851;28;99262;-65
2023/10/12 14:55:48;;;;;;;16.05;8.90;;;;;;;;;;4992283;28;100568;-65
2023/10/12 14:58:16;;;;;;;23.13;8.93;;;;;;;;;;4988841;28;100250;-65
2023/10/12 15:00:44;;;;;;;17.50;9.23;;;;;;;;;;4988037;28;99671;-65
2023/10/12 15:03:11;;;;;;;11.57;7.32;;;;;;;;;;4988347;28;97865;-65
2023/10/12 15:05:38;;;;;;;11.00;5.47;;;;;;;;;;4988530;28;98974;-65
2023/10/12 15:08:07;;;;;;;8.27;5.25;;;;;;;;;;4986351;28;99626;-65
2023/10/12 15:10:43;;;;;;;10.73;5.60;;;;;;;;;;4987427;28;99942;-65
2023/10/12 15:13:13;;;;;;;9.48;5.65;;;;;;;;;;4988160;28;99882;-63
2023/10/12 15:15:40;;;;;;;8.35;5.25;;;;;;;;;;4988003;28;100459;-65
2023/10/12 15:18:06;;;;;;;7.13;5.47;;;;;;;;;;4991853;28;98598;-65
2023/10/12 15:20:34;;;;;;;11.77;7.28;;;;;;;;;;4988198;28;99282;-65
2023/10/12 15:23:00;;;;;;;13.88;7.68;;;;;;;;;;4988139;28;98688;-65
2023/10/12 15:25:27;;;;;;;12.82;6.40;;;;;;;;;;4987674;28;100600;-65
2023/10/12 15:27:56;;;;;;;12.95;6.72;;;;;;;;;;4988228;28;98940;-65
2023/10/12 15:30:22;;;;;;;9.38;7.10;;;;;;;;;;4987673;28;98513;-67
2023/10/12 15:32:49;;;;;;;12.15;7.57;;;;;;;;;;4985027;28;100155;-65
2023/10/12 15:35:23;;;;;;;14.70;9.18;;;;;;;;;;4987067;28;100380;-65
2023/10/12 15:37:50;;;;;;;17.52;9.20;;;;;;;;;;4985749;28;99124;-65
2023/10/12 15:40:26;;;;;;;19.85;9.68;;;;;;;;;;4993725;28;99133;-65
2023/10/12 15:42:53;;;;;;;20.85;10.02;;;;;;;;;;4986942;28;98513;-66
2023/10/12 15:45:20;;;;;;;22.88;11.07;;;;;;;;;;4986945;28;99125;-66
2023/10/12 15:47:47;;;;;;;24.38;11.35;;;;;;;;;;4990229;28;99514;-65
2023/10/12 15:50:14;;;;;;;18.27;11.75;;;;;;;;;;4991271;28;98629;-65
2023/10/12 15:52:43;;;;;;;22.65;12.80;;;;;;;;;;4990177;28;99256;-65
2023/10/12 15:55:12;;;;;;;22.92;12.32;;;;;;;;;;4990694;28;100278;-65
2023/10/12 15:57:38;;;;;;;25.17;13.27;;;;;;;;;;4989455;28;98729;-66
2023/10/12 16:00:08;;;;;;;18.10;12.70;;;;;;;;;;4989736;28;99641;-66
2023/10/12 16:02:36;;;;;;;20.80;14.10;;;;;;;;;;4992355;28;99558;-65
2023/10/12 16:05:06;;;;;;;27.02;14.05;;;;;;;;;;4990277;28;100278;-66
2023/10/12 16:07:33;;;;;;;24.70;14.05;;;;;;;;;;4990419;28;100676;-65
2023/10/12 16:10:00;;;;;;;27.83;14.93;;;;;;;;;;4990919;28;98752;-65
2023/10/12 16:12:27;;;;;;;23.63;14.45;;;;;;;;;;4989761;28;99370;-65
2023/10/12 16:14:54;;;;;;;25.00;14.15;;;;;;;;;;4989704;28;100461;-65
2023/10/12 16:17:21;;;;;;;25.17;15.70;;;;;;;;;;4991530;28;98057;-65
2023/10/12 16:19:51;;;;;;;22.30;14.60;;;;;;;;;;4989682;28;98946;-65
2023/10/12 16:22:20;;;;;;;27.67;14.03;;;;;;;;;;4989294;28;99831;-65
2023/10/12 16:24:47;;;;;;;31.98;16.17;;;;;;;;;;4993116;28;99327;-64
2023/10/12 16:27:13;;;;;;;22.13;14.57;;;;;;;;;;4989009;28;99700;-64
2023/10/12 16:29:40;;;;;;;22.60;14.10;;;;;;;;;;4989294;28;98502;-64
2023/10/12 16:32:25;;;;;;;29.75;16.67;;;;;;;;;;4986528;28;99129;-63
2023/10/12 16:34:52;;;;;;;23.38;15.00;;;;;;;;;;4986013;28;99593;-63
2023/10/12 16:37:18;;;;;;;25.83;15.40;;;;;;;;;;4989380;28;98648;-64
2023/10/12 16:39:45;;;;;;;30.83;15.32;;;;;;;;;;4987854;28;99409;-64
2023/10/12 16:42:12;;;;;;;24.58;15.88;;;;;;;;;;4989984;28;99733;-63
2023/10/12 16:44:38;;;;;;;22.73;14.52;;;;;;;;;;4992750;28;98565;-63
2023/10/12 16:47:06;;;;;;;28.55;16.02;;;;;;;;;;4988904;28;99844;-63
2023/10/12 16:49:33;;;;;;;28.55;16.00;;;;;;;;;;4988201;28;99812;-63
2023/10/12 16:52:00;;;;;;;29.95;17.10;;;;;;;;;;4989016;28;100281;-63
2023/10/12 16:54:27;;;;;;;36.08;18.58;;;;;;;;;;4989405;28;99496;-66